Skip Navigation Links Skip Navigation Links

Current Weather

Greater Rockford, Rockford, Ill.

For information only: do not use for flight planning or navigation.
Latest weather
Observation time Saturday, July 20, 2019 10:54 AM CDT
Local time Saturday, July 20, 2019 11:12 AM CDT
Flight conditions Visual Meteorological Conditions
Winds
Wind direction Southwest (220°)
Wind speed 14 mph
Wind gusting to 22 mph
Visibility 10 mi.
Sky condition
Ceiling unlimited
Cloud layer few clouds 2,800 ft.
Cloud layer few clouds 25,000 ft.
Temperature 89°F
Dewpoint 78°F
Altimeter 29.84 in.Hg
Derived measurements
Relative humidity 70%
Heat index 103°F
Density altitude 3179 ft.
Sea-level pressure 29.82 in.Hg
Remarks
System requires maintenance.
Automated weather observing station with precipitation discriminator.
METAR KRFD 201554Z 22012G19KT 10SM FEW028 FEW250 32/26 A2984 RMK AO2 SLP098 T03170256 $

Settings

Location code

InnerDrive.Weather 4.0.6770.0 Release CLR 4.0.30319.42000
Copyright ©2018 Inner Drive Technology. All rights reserved. Portions Copyright ©1986-2018 David Braverman.

Find weather

Site navigation


Skip Navigation Links

Place info

Page info

PayPal - The safer, easier way to pay online!

Return home.

Copyright ©2019 Inner Drive Technology. Purveyors of fine, hand-crafted computer software. Page printed 2019-07-20T16:12:08 UTC.